sensor_id;sensor_type;location;lat;lon;timestamp;P1;durP1;ratioP1;P2;durP2;ratioP2
57317;SDS011;43157;50.982;18.132;2023-06-24T00:02:12;30.50;;;13.10;;
57317;SDS011;43157;50.982;18.132;2023-06-24T00:04:38;29.60;;;13.70;;
57317;SDS011;43157;50.982;18.132;2023-06-24T00:07:04;26.90;;;14.60;;
57317;SDS011;43157;50.982;18.132;2023-06-24T00:09:30;28.40;;;14.60;;
57317;SDS011;43157;50.982;18.132;2023-06-24T00:11:57;29.20;;;14.50;;
57317;SDS011;43157;50.982;18.132;2023-06-24T00:14:26;33.20;;;14.90;;
57317;SDS011;43157;50.982;18.132;2023-06-24T00:16:53;33.10;;;14.80;;
57317;SDS011;43157;50.982;18.132;2023-06-24T00:19:20;33.00;;;15.70;;
57317;SDS011;43157;50.982;18.132;2023-06-24T00:21:48;30.30;;;15.50;;
57317;SDS011;43157;50.982;18.132;2023-06-24T00:24:17;28.50;;;15.00;;
57317;SDS011;43157;50.982;18.132;2023-06-24T00:26:47;28.20;;;13.60;;
57317;SDS011;43157;50.982;18.132;2023-06-24T00:29:13;24.00;;;12.90;;
57317;SDS011;43157;50.982;18.132;2023-06-24T00:31:40;28.80;;;14.50;;
57317;SDS011;43157;50.982;18.132;2023-06-24T00:34:07;24.10;;;13.50;;
57317;SDS011;43157;50.982;18.132;2023-06-24T00:36:33;32.10;;;14.90;;
57317;SDS011;43157;50.982;18.132;2023-06-24T00:39:00;28.00;;;14.80;;
57317;SDS011;43157;50.982;18.132;2023-06-24T00:41:29;29.90;;;13.60;;
57317;SDS011;43157;50.982;18.132;2023-06-24T00:43:56;26.60;;;12.80;;
57317;SDS011;43157;50.982;18.132;2023-06-24T00:46:25;23.00;;;13.70;;
57317;SDS011;43157;50.982;18.132;2023-06-24T00:48:55;27.50;;;13.60;;
57317;SDS011;43157;50.982;18.132;2023-06-24T00:51:21;24.80;;;14.20;;
57317;SDS011;43157;50.982;18.132;2023-06-24T00:53:55;35.40;;;13.50;;
57317;SDS011;43157;50.982;18.132;2023-06-24T00:56:31;28.50;;;12.40;;
57317;SDS011;43157;50.982;18.132;2023-06-24T00:58:59;24.80;;;12.30;;
57317;SDS011;43157;50.982;18.132;2023-06-24T01:01:28;22.90;;;12.00;;
57317;SDS011;43157;50.982;18.132;2023-06-24T01:03:57;22.50;;;11.90;;
57317;SDS011;43157;50.982;18.132;2023-06-24T01:06:23;27.50;;;12.60;;
57317;SDS011;43157;50.982;18.132;2023-06-24T01:08:55;27.70;;;12.30;;
57317;SDS011;43157;50.982;18.132;2023-06-24T01:11:26;25.40;;;11.90;;
57317;SDS011;43157;50.982;18.132;2023-06-24T01:13:52;27.40;;;10.80;;
57317;SDS011;43157;50.982;18.132;2023-06-24T01:16:42;28.90;;;12.10;;
57317;SDS011;43157;50.982;18.132;2023-06-24T01:24:57;25.80;;;13.00;;
57317;SDS011;43157;50.982;18.132;2023-06-24T01:33:51;21.90;;;11.10;;
57317;SDS011;43157;50.982;18.132;2023-06-24T01:36:25;23.70;;;12.00;;
57317;SDS011;43157;50.982;18.132;2023-06-24T01:38:52;25.30;;;11.40;;
57317;SDS011;43157;50.982;18.132;2023-06-24T01:41:24;32.10;;;12.80;;
57317;SDS011;43157;50.982;18.132;2023-06-24T01:43:50;24.90;;;11.70;;
57317;SDS011;43157;50.982;18.132;2023-06-24T01:46:19;22.00;;;11.70;;
57317;SDS011;43157;50.982;18.132;2023-06-24T01:48:47;18.30;;;9.50;;
57317;SDS011;43157;50.982;18.132;2023-06-24T01:51:17;20.40;;;10.40;;
57317;SDS011;43157;50.982;18.132;2023-06-24T01:53:48;25.60;;;12.20;;
57317;SDS011;43157;50.982;18.132;2023-06-24T01:56:16;20.90;;;10.00;;
57317;SDS011;43157;50.982;18.132;2023-06-24T01:58:43;23.10;;;9.70;;
57317;SDS011;43157;50.982;18.132;2023-06-24T02:01:10;21.90;;;10.60;;
57317;SDS011;43157;50.982;18.132;2023-06-24T02:03:38;21.60;;;9.50;;
57317;SDS011;43157;50.982;18.132;2023-06-24T02:06:05;23.50;;;9.40;;
57317;SDS011;43157;50.982;18.132;2023-06-24T02:08:32;19.20;;;9.70;;
57317;SDS011;43157;50.982;18.132;2023-06-24T02:10:59;21.50;;;10.10;;
57317;SDS011;43157;50.982;18.132;2023-06-24T02:13:25;17.70;;;8.90;;
57317;SDS011;43157;50.982;18.132;2023-06-24T02:15:52;21.80;;;9.40;;
57317;SDS011;43157;50.982;18.132;2023-06-24T02:18:18;21.70;;;8.30;;
57317;SDS011;43157;50.982;18.132;2023-06-24T02:20:45;20.40;;;9.50;;
57317;SDS011;43157;50.982;18.132;2023-06-24T02:23:12;20.30;;;8.90;;
57317;SDS011;43157;50.982;18.132;2023-06-24T02:25:38;18.30;;;8.70;;
57317;SDS011;43157;50.982;18.132;2023-06-24T02:28:05;20.10;;;9.10;;
57317;SDS011;43157;50.982;18.132;2023-06-24T02:30:33;18.60;;;8.60;;
57317;SDS011;43157;50.982;18.132;2023-06-24T02:33:00;18.90;;;9.50;;
57317;SDS011;43157;50.982;18.132;2023-06-24T02:35:26;18.00;;;8.10;;
57317;SDS011;43157;50.982;18.132;2023-06-24T02:37:52;19.80;;;9.10;;
57317;SDS011;43157;50.982;18.132;2023-06-24T02:40:18;22.10;;;8.30;;
57317;SDS011;43157;50.982;18.132;2023-06-24T02:42:44;17.20;;;7.30;;
57317;SDS011;43157;50.982;18.132;2023-06-24T02:45:11;23.50;;;9.50;;
57317;SDS011;43157;50.982;18.132;2023-06-24T02:47:37;17.40;;;7.30;;
57317;SDS011;43157;50.982;18.132;2023-06-24T02:50:03;20.90;;;8.50;;
57317;SDS011;43157;50.982;18.132;2023-06-24T02:52:31;18.80;;;8.40;;
57317;SDS011;43157;50.982;18.132;2023-06-24T02:54:57;16.70;;;7.30;;
57317;SDS011;43157;50.982;18.132;2023-06-24T02:57:24;18.50;;;8.20;;
57317;SDS011;43157;50.982;18.132;2023-06-24T02:59:51;20.40;;;7.70;;
57317;SDS011;43157;50.982;18.132;2023-06-24T03:02:17;16.60;;;8.30;;
57317;SDS011;43157;50.982;18.132;2023-06-24T03:04:43;22.30;;;9.30;;
57317;SDS011;43157;50.982;18.132;2023-06-24T03:07:10;16.20;;;7.70;;
57317;SDS011;43157;50.982;18.132;2023-06-24T03:09:36;18.30;;;8.00;;
57317;SDS011;43157;50.982;18.132;2023-06-24T03:12:03;19.00;;;8.20;;
57317;SDS011;43157;50.982;18.132;2023-06-24T03:14:29;25.50;;;8.90;;
57317;SDS011;43157;50.982;18.132;2023-06-24T03:16:55;21.90;;;8.10;;
57317;SDS011;43157;50.982;18.132;2023-06-24T03:19:21;20.00;;;8.40;;
57317;SDS011;43157;50.982;18.132;2023-06-24T03:21:47;18.20;;;8.20;;
57317;SDS011;43157;50.982;18.132;2023-06-24T03:24:13;19.40;;;8.60;;
57317;SDS011;43157;50.982;18.132;2023-06-24T03:26:40;23.60;;;8.50;;
57317;SDS011;43157;50.982;18.132;2023-06-24T03:29:06;22.50;;;8.20;;
57317;SDS011;43157;50.982;18.132;2023-06-24T03:31:33;16.90;;;8.70;;
57317;SDS011;43157;50.982;18.132;2023-06-24T03:33:59;19.70;;;9.30;;
57317;SDS011;43157;50.982;18.132;2023-06-24T03:36:25;22.90;;;8.10;;
57317;SDS011;43157;50.982;18.132;2023-06-24T03:38:52;16.50;;;7.40;;
57317;SDS011;43157;50.982;18.132;2023-06-24T03:41:18;20.80;;;8.20;;
57317;SDS011;43157;50.982;18.132;2023-06-24T03:43:44;16.80;;;7.70;;
57317;SDS011;43157;50.982;18.132;2023-06-24T03:46:10;16.60;;;7.80;;
57317;SDS011;43157;50.982;18.132;2023-06-24T03:48:37;23.60;;;8.80;;
57317;SDS011;43157;50.982;18.132;2023-06-24T03:51:03;20.50;;;8.70;;
57317;SDS011;43157;50.982;18.132;2023-06-24T03:53:30;16.90;;;8.00;;
57317;SDS011;43157;50.982;18.132;2023-06-24T03:55:56;18.40;;;8.40;;
57317;SDS011;43157;50.982;18.132;2023-06-24T03:58:21;18.40;;;8.50;;
57317;SDS011;43157;50.982;18.132;2023-06-24T04:14:10;19.20;;;8.40;;
57317;SDS011;43157;50.982;18.132;2023-06-24T04:16:36;20.00;;;8.60;;
57317;SDS011;43157;50.982;18.132;2023-06-24T04:19:02;17.20;;;8.00;;
57317;SDS011;43157;50.982;18.132;2023-06-24T04:21:29;14.70;;;7.90;;
57317;SDS011;43157;50.982;18.132;2023-06-24T04:23:55;19.10;;;8.90;;
57317;SDS011;43157;50.982;18.132;2023-06-24T04:26:21;17.00;;;8.20;;
57317;SDS011;43157;50.982;18.132;2023-06-24T04:28:47;19.00;;;8.30;;
57317;SDS011;43157;50.982;18.132;2023-06-24T04:31:13;20.20;;;9.20;;
57317;SDS011;43157;50.982;18.132;2023-06-24T04:33:40;19.20;;;8.70;;
57317;SDS011;43157;50.982;18.132;2023-06-24T04:36:06;16.10;;;8.00;;
57317;SDS011;43157;50.982;18.132;2023-06-24T04:38:32;15.00;;;8.30;;
57317;SDS011;43157;50.982;18.132;2023-06-24T04:40:58;17.30;;;8.60;;
57317;SDS011;43157;50.982;18.132;2023-06-24T04:43:25;14.90;;;8.40;;
57317;SDS011;43157;50.982;18.132;2023-06-24T04:45:53;14.20;;;7.20;;
57317;SDS011;43157;50.982;18.132;2023-06-24T04:48:22;17.80;;;7.00;;
57317;SDS011;43157;50.982;18.132;2023-06-24T04:50:49;15.70;;;6.60;;
57317;SDS011;43157;50.982;18.132;2023-06-24T04:53:15;16.80;;;6.70;;
57317;SDS011;43157;50.982;18.132;2023-06-24T04:55:41;15.10;;;6.90;;
57317;SDS011;43157;50.982;18.132;2023-06-24T04:58:07;13.40;;;6.40;;
57317;SDS011;43157;50.982;18.132;2023-06-24T05:00:34;15.90;;;6.60;;
57317;SDS011;43157;50.982;18.132;2023-06-24T05:03:00;15.40;;;6.40;;
57317;SDS011;43157;50.982;18.132;2023-06-24T05:05:26;11.60;;;5.50;;
57317;SDS011;43157;50.982;18.132;2023-06-24T05:07:52;12.90;;;5.40;;
57317;SDS011;43157;50.982;18.132;2023-06-24T05:10:18;13.30;;;5.80;;
57317;SDS011;43157;50.982;18.132;2023-06-24T05:12:45;17.80;;;6.50;;
57317;SDS011;43157;50.982;18.132;2023-06-24T05:15:11;12.70;;;5.90;;
57317;SDS011;43157;50.982;18.132;2023-06-24T05:17:37;12.70;;;5.80;;
57317;SDS011;43157;50.982;18.132;2023-06-24T05:20:05;18.40;;;6.30;;
57317;SDS011;43157;50.982;18.132;2023-06-24T05:22:31;15.60;;;6.30;;
57317;SDS011;43157;50.982;18.132;2023-06-24T05:24:57;15.90;;;6.40;;
57317;SDS011;43157;50.982;18.132;2023-06-24T05:27:23;16.00;;;5.80;;
57317;SDS011;43157;50.982;18.132;2023-06-24T05:29:51;13.20;;;6.00;;
57317;SDS011;43157;50.982;18.132;2023-06-24T05:32:17;12.70;;;5.80;;
57317;SDS011;43157;50.982;18.132;2023-06-24T05:34:45;13.50;;;5.60;;
57317;SDS011;43157;50.982;18.132;2023-06-24T05:37:11;12.10;;;5.30;;
57317;SDS011;43157;50.982;18.132;2023-06-24T05:39:37;13.90;;;6.50;;
57317;SDS011;43157;50.982;18.132;2023-06-24T05:42:04;12.00;;;6.20;;
57317;SDS011;43157;50.982;18.132;2023-06-24T05:44:30;13.30;;;5.90;;
57317;SDS011;43157;50.982;18.132;2023-06-24T05:46:56;15.20;;;5.80;;
57317;SDS011;43157;50.982;18.132;2023-06-24T05:49:23;12.70;;;5.80;;
57317;SDS011;43157;50.982;18.132;2023-06-24T05:51:49;12.10;;;5.10;;
57317;SDS011;43157;50.982;18.132;2023-06-24T05:54:15;13.60;;;5.10;;
57317;SDS011;43157;50.982;18.132;2023-06-24T05:56:41;12.00;;;5.80;;
57317;SDS011;43157;50.982;18.132;2023-06-24T05:59:07;13.90;;;6.00;;
57317;SDS011;43157;50.982;18.132;2023-06-24T06:01:34;13.00;;;6.00;;
57317;SDS011;43157;50.982;18.132;2023-06-24T06:04:00;13.10;;;5.10;;
57317;SDS011;43157;50.982;18.132;2023-06-24T06:06:26;13.50;;;5.00;;
57317;SDS011;43157;50.982;18.132;2023-06-24T06:08:52;11.10;;;5.30;;
57317;SDS011;43157;50.982;18.132;2023-06-24T06:11:18;12.80;;;5.30;;
57317;SDS011;43157;50.982;18.132;2023-06-24T06:13:45;12.10;;;5.30;;
57317;SDS011;43157;50.982;18.132;2023-06-24T06:16:11;13.10;;;5.00;;
57317;SDS011;43157;50.982;18.132;2023-06-24T06:18:37;13.00;;;5.40;;
57317;SDS011;43157;50.982;18.132;2023-06-24T06:21:03;14.40;;;5.40;;
57317;SDS011;43157;50.982;18.132;2023-06-24T06:23:30;14.10;;;5.80;;
57317;SDS011;43157;50.982;18.132;2023-06-24T06:25:56;11.00;;;5.50;;
57317;SDS011;43157;50.982;18.132;2023-06-24T06:28:23;15.80;;;6.20;;
57317;SDS011;43157;50.982;18.132;2023-06-24T06:30:49;15.90;;;6.10;;
57317;SDS011;43157;50.982;18.132;2023-06-24T06:33:15;14.80;;;6.00;;
57317;SDS011;43157;50.982;18.132;2023-06-24T06:35:41;12.70;;;5.70;;
57317;SDS011;43157;50.982;18.132;2023-06-24T06:38:07;14.30;;;5.50;;
57317;SDS011;43157;50.982;18.132;2023-06-24T06:40:34;13.40;;;5.90;;
57317;SDS011;43157;50.982;18.132;2023-06-24T06:43:00;13.70;;;6.20;;
57317;SDS011;43157;50.982;18.132;2023-06-24T06:45:26;16.90;;;5.20;;
57317;SDS011;43157;50.982;18.132;2023-06-24T06:47:52;13.60;;;5.90;;
57317;SDS011;43157;50.982;18.132;2023-06-24T06:50:19;15.40;;;6.30;;
57317;SDS011;43157;50.982;18.132;2023-06-24T06:52:45;13.00;;;5.80;;
57317;SDS011;43157;50.982;18.132;2023-06-24T06:55:11;11.90;;;5.00;;
57317;SDS011;43157;50.982;18.132;2023-06-24T06:57:37;13.40;;;4.80;;
57317;SDS011;43157;50.982;18.132;2023-06-24T07:00:04;12.20;;;5.10;;
57317;SDS011;43157;50.982;18.132;2023-06-24T07:02:31;18.50;;;4.90;;
57317;SDS011;43157;50.982;18.132;2023-06-24T07:04:57;12.30;;;4.90;;
57317;SDS011;43157;50.982;18.132;2023-06-24T07:07:24;13.80;;;5.60;;
57317;SDS011;43157;50.982;18.132;2023-06-24T07:09:51;13.80;;;5.70;;
57317;SDS011;43157;50.982;18.132;2023-06-24T07:12:17;13.80;;;5.50;;
57317;SDS011;43157;50.982;18.132;2023-06-24T07:14:43;11.50;;;5.30;;
57317;SDS011;43157;50.982;18.132;2023-06-24T07:17:09;12.80;;;5.60;;
57317;SDS011;43157;50.982;18.132;2023-06-24T07:19:35;11.90;;;4.90;;
57317;SDS011;43157;50.982;18.132;2023-06-24T07:22:02;13.10;;;5.40;;
57317;SDS011;43157;50.982;18.132;2023-06-24T07:24:28;14.50;;;6.20;;
57317;SDS011;43157;50.982;18.132;2023-06-24T07:26:54;11.70;;;5.30;;
57317;SDS011;43157;50.982;18.132;2023-06-24T07:29:20;12.70;;;4.90;;
57317;SDS011;43157;50.982;18.132;2023-06-24T07:31:47;12.60;;;4.90;;
57317;SDS011;43157;50.982;18.132;2023-06-24T07:34:13;10.60;;;4.80;;
57317;SDS011;43157;50.982;18.132;2023-06-24T07:36:39;12.00;;;4.60;;
57317;SDS011;43157;50.982;18.132;2023-06-24T07:39:08;10.50;;;4.10;;
57317;SDS011;43157;50.982;18.132;2023-06-24T07:41:34;11.00;;;4.40;;
57317;SDS011;43157;50.982;18.132;2023-06-24T07:44:00;10.20;;;4.40;;
57317;SDS011;43157;50.982;18.132;2023-06-24T07:46:27;10.90;;;4.30;;
57317;SDS011;43157;50.982;18.132;2023-06-24T07:48:53;10.90;;;3.80;;
57317;SDS011;43157;50.982;18.132;2023-06-24T07:51:19;12.70;;;3.90;;
57317;SDS011;43157;50.982;18.132;2023-06-24T07:53:45;10.80;;;3.90;;
57317;SDS011;43157;50.982;18.132;2023-06-24T07:56:12;11.30;;;3.70;;
57317;SDS011;43157;50.982;18.132;2023-06-24T07:58:37;11.60;;;3.20;;
57317;SDS011;43157;50.982;18.132;2023-06-24T08:01:03;9.80;;;2.70;;
57317;SDS011;43157;50.982;18.132;2023-06-24T08:03:30;7.10;;;2.20;;
57317;SDS011;43157;50.982;18.132;2023-06-24T08:05:56;7.70;;;2.60;;
57317;SDS011;43157;50.982;18.132;2023-06-24T08:08:22;8.40;;;2.50;;
57317;SDS011;43157;50.982;18.132;2023-06-24T08:10:49;7.90;;;2.50;;
57317;SDS011;43157;50.982;18.132;2023-06-24T08:13:15;8.30;;;2.90;;
57317;SDS011;43157;50.982;18.132;2023-06-24T08:15:41;7.30;;;2.60;;
57317;SDS011;43157;50.982;18.132;2023-06-24T08:18:07;8.20;;;2.50;;
57317;SDS011;43157;50.982;18.132;2023-06-24T08:20:33;8.30;;;2.20;;
57317;SDS011;43157;50.982;18.132;2023-06-24T08:23:00;10.30;;;3.00;;
57317;SDS011;43157;50.982;18.132;2023-06-24T08:25:26;9.90;;;2.90;;
57317;SDS011;43157;50.982;18.132;2023-06-24T08:27:52;9.40;;;2.50;;
57317;SDS011;43157;50.982;18.132;2023-06-24T08:30:18;9.60;;;3.00;;
57317;SDS011;43157;50.982;18.132;2023-06-24T08:32:45;9.50;;;2.80;;
57317;SDS011;43157;50.982;18.132;2023-06-24T08:35:11;7.60;;;2.70;;
57317;SDS011;43157;50.982;18.132;2023-06-24T08:37:37;8.30;;;2.90;;
57317;SDS011;43157;50.982;18.132;2023-06-24T08:40:04;10.20;;;3.50;;
57317;SDS011;43157;50.982;18.132;2023-06-24T08:42:30;8.70;;;3.30;;
57317;SDS011;43157;50.982;18.132;2023-06-24T08:44:56;9.40;;;2.80;;
57317;SDS011;43157;50.982;18.132;2023-06-24T08:47:26;8.80;;;2.90;;
57317;SDS011;43157;50.982;18.132;2023-06-24T08:49:55;9.40;;;2.90;;
57317;SDS011;43157;50.982;18.132;2023-06-24T08:52:41;8.70;;;3.20;;
57317;SDS011;43157;50.982;18.132;2023-06-24T08:55:08;9.50;;;3.40;;
57317;SDS011;43157;50.982;18.132;2023-06-24T08:57:36;10.80;;;3.00;;
57317;SDS011;43157;50.982;18.132;2023-06-24T09:00:02;7.50;;;2.80;;
57317;SDS011;43157;50.982;18.132;2023-06-24T09:02:30;9.10;;;3.10;;
57317;SDS011;43157;50.982;18.132;2023-06-24T09:04:58;11.00;;;3.50;;
57317;SDS011;43157;50.982;18.132;2023-06-24T09:07:27;8.60;;;3.00;;
57317;SDS011;43157;50.982;18.132;2023-06-24T09:09:53;9.50;;;3.00;;
57317;SDS011;43157;50.982;18.132;2023-06-24T09:12:20;8.50;;;3.50;;
57317;SDS011;43157;50.982;18.132;2023-06-24T09:14:49;10.90;;;2.90;;
57317;SDS011;43157;50.982;18.132;2023-06-24T09:17:16;11.30;;;3.20;;
57317;SDS011;43157;50.982;18.132;2023-06-24T09:19:42;9.20;;;3.20;;
57317;SDS011;43157;50.982;18.132;2023-06-24T09:22:09;10.90;;;2.80;;
57317;SDS011;43157;50.982;18.132;2023-06-24T09:24:43;10.10;;;3.10;;
57317;SDS011;43157;50.982;18.132;2023-06-24T09:27:12;9.60;;;3.10;;
57317;SDS011;43157;50.982;18.132;2023-06-24T09:29:40;11.50;;;3.00;;
57317;SDS011;43157;50.982;18.132;2023-06-24T09:32:07;9.40;;;3.00;;
57317;SDS011;43157;50.982;18.132;2023-06-24T09:34:34;9.30;;;3.30;;
57317;SDS011;43157;50.982;18.132;2023-06-24T09:37:00;14.70;;;3.10;;
57317;SDS011;43157;50.982;18.132;2023-06-24T09:39:27;7.90;;;3.00;;
57317;SDS011;43157;50.982;18.132;2023-06-24T09:41:56;7.50;;;2.70;;
57317;SDS011;43157;50.982;18.132;2023-06-24T09:44:22;10.40;;;3.30;;
57317;SDS011;43157;50.982;18.132;2023-06-24T09:46:49;9.40;;;3.00;;
57317;SDS011;43157;50.982;18.132;2023-06-24T09:49:15;10.70;;;2.90;;
57317;SDS011;43157;50.982;18.132;2023-06-24T09:51:45;9.80;;;3.00;;
57317;SDS011;43157;50.982;18.132;2023-06-24T09:54:12;9.60;;;3.10;;
57317;SDS011;43157;50.982;18.132;2023-06-24T09:56:40;9.60;;;3.00;;
57317;SDS011;43157;50.982;18.132;2023-06-24T09:59:12;8.20;;;3.00;;
57317;SDS011;43157;50.982;18.132;2023-06-24T10:01:39;9.40;;;3.40;;
57317;SDS011;43157;50.982;18.132;2023-06-24T10:04:05;11.60;;;3.20;;
57317;SDS011;43157;50.982;18.132;2023-06-24T10:06:32;10.40;;;3.60;;
57317;SDS011;43157;50.982;18.132;2023-06-24T10:09:00;8.10;;;3.10;;
57317;SDS011;43157;50.982;18.132;2023-06-24T10:11:26;10.20;;;3.00;;
57317;SDS011;43157;50.982;18.132;2023-06-24T10:13:53;9.60;;;3.40;;
57317;SDS011;43157;50.982;18.132;2023-06-24T10:16:20;10.00;;;3.50;;
57317;SDS011;43157;50.982;18.132;2023-06-24T10:18:46;9.80;;;3.70;;
57317;SDS011;43157;50.982;18.132;2023-06-24T10:21:13;11.80;;;3.50;;
57317;SDS011;43157;50.982;18.132;2023-06-24T10:26:24;9.10;;;3.30;;
57317;SDS011;43157;50.982;18.132;2023-06-24T10:36:54;10.30;;;3.40;;
57317;SDS011;43157;50.982;18.132;2023-06-24T10:42:52;10.10;;;3.60;;
57317;SDS011;43157;50.982;18.132;2023-06-24T10:45:14;14.10;;;4.80;;
57317;SDS011;43157;50.982;18.132;2023-06-24T10:47:45;12.20;;;4.80;;
57317;SDS011;43157;50.982;18.132;2023-06-24T10:50:18;10.50;;;3.90;;
57317;SDS011;43157;50.982;18.132;2023-06-24T10:52:49;11.80;;;4.10;;
57317;SDS011;43157;50.982;18.132;2023-06-24T10:55:19;12.40;;;4.70;;
57317;SDS011;43157;50.982;18.132;2023-06-24T10:57:45;10.20;;;4.00;;
57317;SDS011;43157;50.982;18.132;2023-06-24T11:00:14;10.80;;;4.30;;
57317;SDS011;43157;50.982;18.132;2023-06-24T11:02:41;10.60;;;4.40;;
57317;SDS011;43157;50.982;18.132;2023-06-24T11:05:07;11.10;;;4.40;;
57317;SDS011;43157;50.982;18.132;2023-06-24T11:07:34;11.60;;;4.70;;
57317;SDS011;43157;50.982;18.132;2023-06-24T11:12:30;11.60;;;5.10;;
57317;SDS011;43157;50.982;18.132;2023-06-24T11:14:58;14.90;;;4.70;;
57317;SDS011;43157;50.982;18.132;2023-06-24T11:17:25;12.40;;;4.80;;
57317;SDS011;43157;50.982;18.132;2023-06-24T11:19:52;11.00;;;4.90;;
57317;SDS011;43157;50.982;18.132;2023-06-24T11:22:18;10.40;;;4.60;;
57317;SDS011;43157;50.982;18.132;2023-06-24T11:24:44;14.00;;;5.90;;
57317;SDS011;43157;50.982;18.132;2023-06-24T11:27:10;12.10;;;5.90;;
57317;SDS011;43157;50.982;18.132;2023-06-24T11:29:36;11.80;;;5.00;;
57317;SDS011;43157;50.982;18.132;2023-06-24T11:32:03;11.10;;;4.90;;
57317;SDS011;43157;50.982;18.132;2023-06-24T11:34:32;12.40;;;4.20;;
57317;SDS011;43157;50.982;18.132;2023-06-24T11:37:03;9.30;;;4.00;;
57317;SDS011;43157;50.982;18.132;2023-06-24T11:39:35;11.60;;;3.80;;
57317;SDS011;43157;50.982;18.132;2023-06-24T11:42:01;10.40;;;3.30;;
57317;SDS011;43157;50.982;18.132;2023-06-24T11:44:28;11.70;;;3.00;;
57317;SDS011;43157;50.982;18.132;2023-06-24T11:47:06;10.30;;;3.20;;
57317;SDS011;43157;50.982;18.132;2023-06-24T11:49:52;8.10;;;2.90;;
57317;SDS011;43157;50.982;18.132;2023-06-24T11:52:31;7.10;;;2.50;;
57317;SDS011;43157;50.982;18.132;2023-06-24T11:55:10;7.00;;;2.60;;
57317;SDS011;43157;50.982;18.132;2023-06-24T12:00:34;11.00;;;3.70;;
57317;SDS011;43157;50.982;18.132;2023-06-24T12:03:02;9.10;;;4.20;;
57317;SDS011;43157;50.982;18.132;2023-06-24T12:05:30;11.90;;;3.80;;
57317;SDS011;43157;50.982;18.132;2023-06-24T12:08:01;9.90;;;3.60;;
57317;SDS011;43157;50.982;18.132;2023-06-24T12:10:29;11.00;;;3.60;;
57317;SDS011;43157;50.982;18.132;2023-06-24T12:12:57;10.70;;;4.20;;
57317;SDS011;43157;50.982;18.132;2023-06-24T12:15:24;10.10;;;3.60;;
57317;SDS011;43157;50.982;18.132;2023-06-24T12:17:50;13.80;;;4.60;;
57317;SDS011;43157;50.982;18.132;2023-06-24T12:20:17;13.80;;;4.40;;
57317;SDS011;43157;50.982;18.132;2023-06-24T12:22:44;10.40;;;4.20;;
57317;SDS011;43157;50.982;18.132;2023-06-24T12:25:11;10.70;;;4.20;;
57317;SDS011;43157;50.982;18.132;2023-06-24T12:27:37;11.60;;;5.50;;
57317;SDS011;43157;50.982;18.132;2023-06-24T12:30:04;10.80;;;4.60;;
57317;SDS011;43157;50.982;18.132;2023-06-24T12:32:31;13.10;;;5.40;;
57317;SDS011;43157;50.982;18.132;2023-06-24T12:34:57;10.90;;;5.20;;
57317;SDS011;43157;50.982;18.132;2023-06-24T12:37:23;12.00;;;5.40;;
57317;SDS011;43157;50.982;18.132;2023-06-24T12:39:49;17.00;;;6.70;;
57317;SDS011;43157;50.982;18.132;2023-06-24T12:42:16;13.60;;;6.80;;
57317;SDS011;43157;50.982;18.132;2023-06-24T12:44:42;12.30;;;5.30;;
57317;SDS011;43157;50.982;18.132;2023-06-24T12:47:08;11.80;;;5.60;;
57317;SDS011;43157;50.982;18.132;2023-06-24T12:49:35;12.30;;;6.30;;
57317;SDS011;43157;50.982;18.132;2023-06-24T12:52:01;16.70;;;7.30;;
57317;SDS011;43157;50.982;18.132;2023-06-24T12:54:27;12.40;;;6.00;;
57317;SDS011;43157;50.982;18.132;2023-06-24T12:56:56;11.90;;;6.00;;
57317;SDS011;43157;50.982;18.132;2023-06-24T12:59:22;12.00;;;5.70;;
57317;SDS011;43157;50.982;18.132;2023-06-24T13:01:48;11.80;;;5.70;;
57317;SDS011;43157;50.982;18.132;2023-06-24T13:04:15;12.20;;;5.30;;
57317;SDS011;43157;50.982;18.132;2023-06-24T13:06:43;11.90;;;5.60;;
57317;SDS011;43157;50.982;18.132;2023-06-24T13:09:09;14.50;;;4.90;;
57317;SDS011;43157;50.982;18.132;2023-06-24T13:11:35;12.10;;;5.20;;
57317;SDS011;43157;50.982;18.132;2023-06-24T13:14:03;12.70;;;6.00;;
57317;SDS011;43157;50.982;18.132;2023-06-24T13:16:29;13.60;;;5.70;;
57317;SDS011;43157;50.982;18.132;2023-06-24T13:18:55;13.60;;;6.00;;
57317;SDS011;43157;50.982;18.132;2023-06-24T13:21:21;12.70;;;5.80;;
57317;SDS011;43157;50.982;18.132;2023-06-24T13:23:48;13.40;;;5.80;;
57317;SDS011;43157;50.982;18.132;2023-06-24T13:26:14;13.30;;;5.30;;
57317;SDS011;43157;50.982;18.132;2023-06-24T13:28:40;11.60;;;5.10;;
57317;SDS011;43157;50.982;18.132;2023-06-24T13:31:06;15.30;;;5.10;;
57317;SDS011;43157;50.982;18.132;2023-06-24T13:33:32;18.80;;;6.70;;
57317;SDS011;43157;50.982;18.132;2023-06-24T13:35:59;14.80;;;6.40;;
57317;SDS011;43157;50.982;18.132;2023-06-24T13:38:25;15.20;;;6.10;;
57317;SDS011;43157;50.982;18.132;2023-06-24T13:40:51;14.60;;;5.90;;
57317;SDS011;43157;50.982;18.132;2023-06-24T13:43:17;13.30;;;6.50;;
57317;SDS011;43157;50.982;18.132;2023-06-24T13:45:43;13.40;;;5.90;;
57317;SDS011;43157;50.982;18.132;2023-06-24T13:48:10;13.50;;;6.00;;
57317;SDS011;43157;50.982;18.132;2023-06-24T13:50:36;13.00;;;5.90;;
57317;SDS011;43157;50.982;18.132;2023-06-24T13:53:02;10.80;;;5.60;;
57317;SDS011;43157;50.982;18.132;2023-06-24T13:55:28;10.90;;;6.10;;
57317;SDS011;43157;50.982;18.132;2023-06-24T13:57:54;11.60;;;6.00;;
57317;SDS011;43157;50.982;18.132;2023-06-24T14:00:21;13.00;;;6.10;;
57317;SDS011;43157;50.982;18.132;2023-06-24T14:02:47;13.20;;;6.20;;
57317;SDS011;43157;50.982;18.132;2023-06-24T14:05:13;13.50;;;6.60;;
57317;SDS011;43157;50.982;18.132;2023-06-24T14:07:42;13.20;;;6.10;;
57317;SDS011;43157;50.982;18.132;2023-06-24T14:10:08;13.30;;;5.60;;
57317;SDS011;43157;50.982;18.132;2023-06-24T14:12:34;11.90;;;5.60;;
57317;SDS011;43157;50.982;18.132;2023-06-24T14:15:03;13.90;;;6.20;;
57317;SDS011;43157;50.982;18.132;2023-06-24T14:17:30;13.00;;;5.70;;
57317;SDS011;43157;50.982;18.132;2023-06-24T14:19:56;12.80;;;6.10;;
57317;SDS011;43157;50.982;18.132;2023-06-24T14:22:22;13.40;;;6.60;;
57317;SDS011;43157;50.982;18.132;2023-06-24T14:24:48;11.80;;;5.80;;
57317;SDS011;43157;50.982;18.132;2023-06-24T14:27:15;11.20;;;5.60;;
57317;SDS011;43157;50.982;18.132;2023-06-24T14:29:41;11.80;;;6.40;;
57317;SDS011;43157;50.982;18.132;2023-06-24T14:32:07;12.40;;;5.60;;
57317;SDS011;43157;50.982;18.132;2023-06-24T14:34:33;12.70;;;5.80;;
57317;SDS011;43157;50.982;18.132;2023-06-24T14:36:59;13.90;;;6.30;;
57317;SDS011;43157;50.982;18.132;2023-06-24T14:39:26;13.50;;;6.00;;
57317;SDS011;43157;50.982;18.132;2023-06-24T14:41:52;11.80;;;6.10;;
57317;SDS011;43157;50.982;18.132;2023-06-24T14:44:18;12.50;;;6.40;;
57317;SDS011;43157;50.982;18.132;2023-06-24T14:46:44;12.90;;;5.50;;
57317;SDS011;43157;50.982;18.132;2023-06-24T14:49:11;14.10;;;6.30;;
57317;SDS011;43157;50.982;18.132;2023-06-24T14:51:37;11.30;;;5.60;;
57317;SDS011;43157;50.982;18.132;2023-06-24T14:54:03;12.30;;;5.70;;
57317;SDS011;43157;50.982;18.132;2023-06-24T14:56:29;13.00;;;5.90;;
57317;SDS011;43157;50.982;18.132;2023-06-24T14:58:56;12.00;;;6.20;;
57317;SDS011;43157;50.982;18.132;2023-06-24T15:01:22;12.30;;;5.40;;
57317;SDS011;43157;50.982;18.132;2023-06-24T15:03:48;12.20;;;5.90;;
57317;SDS011;43157;50.982;18.132;2023-06-24T15:06:15;11.20;;;5.70;;